CYVC

La Ronge Airport

La Ronge, Saskatchewan, Canada
METAR CYVC 182100Z 30016G24KT 3SM FU SCT032 BKN091 18/07 A2995 RMK FU2SC2AC3 SLP150 DENSITY ALT 1900FT
Observed Flight Rules
Aug-18 @ 21:00 UTC (55 minutes ago) Marginal Visual Flight Rules
Wind Visibility Clouds Conditions
300° at 16 knots
 Gusting to 24 knots
3 miles
  • Scattered at 3,200' AGL
  • Broken at 9,100' AGL
  • Smoke
Temperatures Readings
Current 18°C / 64°F
Dewpoint 7°C / 45°F
Humidity 49%
Altimeter 29.95" Hg
Pressure 1015 hPa
Elevation 379
METAR CYVC 182100Z 30016G24KT 3SM FU SCT032 BKN091 18/07 A2995 RMK FU2SC2AC3 SLP150 DENSITY ALT 1900FT
Observed Flight Rules
Aug-18 @ 21:00 UTC
(55 minutes ago)
MVFR
Wind Visibility
300° at 16 knots
 Gusting to 24 knots
3 miles
Clouds
  • Scattered at 3,200' AGL
  • Broken at 9,100' AGL
Conditions
  • Smoke
Temperature Dewpoint
18°C / 64°F 7°C / 45°F
Humidity Altimeter Pressure
49% 29.95" Hg 1015 hPa